sensor_id;sensor_type;location;lat;lon;timestamp;temperature;humidity
19220;DHT22;9744;49.364;7.484;2023-03-14T00:01:40;8.10;99.90
19220;DHT22;9744;49.364;7.484;2023-03-14T00:04:10;8.10;99.90
19220;DHT22;9744;49.364;7.484;2023-03-14T00:06:38;8.10;99.90
19220;DHT22;9744;49.364;7.484;2023-03-14T00:09:05;8.00;99.90
19220;DHT22;9744;49.364;7.484;2023-03-14T00:11:33;8.00;99.90
19220;DHT22;9744;49.364;7.484;2023-03-14T00:14:00;8.00;99.90
19220;DHT22;9744;49.364;7.484;2023-03-14T00:16:28;8.00;99.90
19220;DHT22;9744;49.364;7.484;2023-03-14T00:18:55;8.00;99.90
19220;DHT22;9744;49.364;7.484;2023-03-14T00:21:22;8.00;99.90
19220;DHT22;9744;49.364;7.484;2023-03-14T00:23:51;8.00;99.90
19220;DHT22;9744;49.364;7.484;2023-03-14T00:26:20;8.00;99.90
19220;DHT22;9744;49.364;7.484;2023-03-14T00:28:51;8.00;99.90
19220;DHT22;9744;49.364;7.484;2023-03-14T00:31:19;8.00;99.90
19220;DHT22;9744;49.364;7.484;2023-03-14T00:33:46;8.00;99.90
19220;DHT22;9744;49.364;7.484;2023-03-14T00:36:14;8.00;99.90
19220;DHT22;9744;49.364;7.484;2023-03-14T00:38:43;8.00;99.90
19220;DHT22;9744;49.364;7.484;2023-03-14T00:41:15;8.00;99.90
19220;DHT22;9744;49.364;7.484;2023-03-14T00:43:42;8.00;99.90
19220;DHT22;9744;49.364;7.484;2023-03-14T00:46:10;8.00;99.90
19220;DHT22;9744;49.364;7.484;2023-03-14T00:48:38;8.00;99.90
19220;DHT22;9744;49.364;7.484;2023-03-14T00:51:06;8.00;99.90
19220;DHT22;9744;49.364;7.484;2023-03-14T00:53:36;8.00;99.90
19220;DHT22;9744;49.364;7.484;2023-03-14T00:56:04;8.00;99.90
19220;DHT22;9744;49.364;7.484;2023-03-14T00:58:33;8.10;99.90
19220;DHT22;9744;49.364;7.484;2023-03-14T01:01:06;8.10;99.90
19220;DHT22;9744;49.364;7.484;2023-03-14T01:03:33;8.10;99.90
19220;DHT22;9744;49.364;7.484;2023-03-14T01:06:07;8.10;99.90
19220;DHT22;9744;49.364;7.484;2023-03-14T01:08:35;8.10;99.90
19220;DHT22;9744;49.364;7.484;2023-03-14T01:11:06;8.10;99.90
19220;DHT22;9744;49.364;7.484;2023-03-14T01:13:35;8.20;99.90
19220;DHT22;9744;49.364;7.484;2023-03-14T01:16:03;8.10;99.90
19220;DHT22;9744;49.364;7.484;2023-03-14T01:18:31;8.10;99.90
19220;DHT22;9744;49.364;7.484;2023-03-14T01:20:58;8.10;99.90
19220;DHT22;9744;49.364;7.484;2023-03-14T01:23:25;8.10;99.90
19220;DHT22;9744;49.364;7.484;2023-03-14T01:25:55;8.10;99.90
19220;DHT22;9744;49.364;7.484;2023-03-14T01:28:22;8.10;99.90
19220;DHT22;9744;49.364;7.484;2023-03-14T01:30:51;8.10;99.90
19220;DHT22;9744;49.364;7.484;2023-03-14T01:33:18;8.10;99.90
19220;DHT22;9744;49.364;7.484;2023-03-14T01:35:45;8.00;99.90
19220;DHT22;9744;49.364;7.484;2023-03-14T01:38:12;8.00;99.90
19220;DHT22;9744;49.364;7.484;2023-03-14T01:40:43;8.00;99.90
19220;DHT22;9744;49.364;7.484;2023-03-14T01:43:16;8.00;99.90
19220;DHT22;9744;49.364;7.484;2023-03-14T01:49:04;7.90;99.90
19220;DHT22;9744;49.364;7.484;2023-03-14T01:51:38;8.00;99.90
19220;DHT22;9744;49.364;7.484;2023-03-14T01:54:12;8.00;99.90
19220;DHT22;9744;49.364;7.484;2023-03-14T01:56:43;8.10;99.90
19220;DHT22;9744;49.364;7.484;2023-03-14T01:59:12;8.20;99.90
19220;DHT22;9744;49.364;7.484;2023-03-14T02:01:43;8.20;99.90
19220;DHT22;9744;49.364;7.484;2023-03-14T02:04:13;8.20;99.90
19220;DHT22;9744;49.364;7.484;2023-03-14T02:06:48;8.20;99.90
19220;DHT22;9744;49.364;7.484;2023-03-14T02:09:18;8.10;99.90
19220;DHT22;9744;49.364;7.484;2023-03-14T02:11:46;8.20;99.90
19220;DHT22;9744;49.364;7.484;2023-03-14T02:14:30;8.20;99.90
19220;DHT22;9744;49.364;7.484;2023-03-14T02:17:16;8.20;99.90
19220;DHT22;9744;49.364;7.484;2023-03-14T02:20:26;8.20;99.90
19220;DHT22;9744;49.364;7.484;2023-03-14T02:22:57;8.10;99.90
19220;DHT22;9744;49.364;7.484;2023-03-14T02:25:45;8.20;99.90
19220;DHT22;9744;49.364;7.484;2023-03-14T02:28:16;8.20;99.90
19220;DHT22;9744;49.364;7.484;2023-03-14T02:30:43;8.10;99.90
19220;DHT22;9744;49.364;7.484;2023-03-14T02:33:13;8.10;99.90
19220;DHT22;9744;49.364;7.484;2023-03-14T02:35:45;8.10;99.90
19220;DHT22;9744;49.364;7.484;2023-03-14T02:38:17;8.10;99.90
19220;DHT22;9744;49.364;7.484;2023-03-14T02:40:48;8.10;99.90
19220;DHT22;9744;49.364;7.484;2023-03-14T02:43:16;8.10;99.90
19220;DHT22;9744;49.364;7.484;2023-03-14T02:45:51;8.10;99.90
19220;DHT22;9744;49.364;7.484;2023-03-14T02:48:24;8.10;99.90
19220;DHT22;9744;49.364;7.484;2023-03-14T02:50:54;8.10;99.90
19220;DHT22;9744;49.364;7.484;2023-03-14T02:53:26;8.10;99.90
19220;DHT22;9744;49.364;7.484;2023-03-14T02:55:56;8.10;99.90
19220;DHT22;9744;49.364;7.484;2023-03-14T02:58:26;8.00;99.90
19220;DHT22;9744;49.364;7.484;2023-03-14T03:01:00;8.00;99.90
19220;DHT22;9744;49.364;7.484;2023-03-14T03:03:27;8.00;99.90
19220;DHT22;9744;49.364;7.484;2023-03-14T03:05:56;8.00;99.90
19220;DHT22;9744;49.364;7.484;2023-03-14T03:08:26;8.00;99.90
19220;DHT22;9744;49.364;7.484;2023-03-14T03:10:57;7.90;99.90
19220;DHT22;9744;49.364;7.484;2023-03-14T03:13:28;7.90;99.90
19220;DHT22;9744;49.364;7.484;2023-03-14T03:15:56;7.90;99.90
19220;DHT22;9744;49.364;7.484;2023-03-14T03:18:23;7.90;99.90
19220;DHT22;9744;49.364;7.484;2023-03-14T03:20:51;7.90;99.90
19220;DHT22;9744;49.364;7.484;2023-03-14T03:23:18;7.90;99.90
19220;DHT22;9744;49.364;7.484;2023-03-14T03:25:48;7.90;99.90
19220;DHT22;9744;49.364;7.484;2023-03-14T03:28:15;7.90;99.90
19220;DHT22;9744;49.364;7.484;2023-03-14T03:30:44;7.90;99.90
19220;DHT22;9744;49.364;7.484;2023-03-14T03:33:12;7.80;99.90
19220;DHT22;9744;49.364;7.484;2023-03-14T03:35:44;7.80;99.90
19220;DHT22;9744;49.364;7.484;2023-03-14T03:38:11;7.80;99.90
19220;DHT22;9744;49.364;7.484;2023-03-14T03:40:39;7.80;99.90
19220;DHT22;9744;49.364;7.484;2023-03-14T03:43:08;7.80;99.90
19220;DHT22;9744;49.364;7.484;2023-03-14T03:45:38;7.70;99.90
19220;DHT22;9744;49.364;7.484;2023-03-14T03:48:07;7.70;99.90
19220;DHT22;9744;49.364;7.484;2023-03-14T03:50:35;7.70;99.90
19220;DHT22;9744;49.364;7.484;2023-03-14T03:53:02;7.60;99.90
19220;DHT22;9744;49.364;7.484;2023-03-14T03:55:29;7.60;99.90
19220;DHT22;9744;49.364;7.484;2023-03-14T03:57:57;7.60;99.90
19220;DHT22;9744;49.364;7.484;2023-03-14T04:00:24;7.50;99.90
19220;DHT22;9744;49.364;7.484;2023-03-14T04:03:18;7.50;99.90
19220;DHT22;9744;49.364;7.484;2023-03-14T04:05:45;7.60;99.90
19220;DHT22;9744;49.364;7.484;2023-03-14T04:08:13;7.40;99.90
19220;DHT22;9744;49.364;7.484;2023-03-14T04:10:40;7.40;99.90
19220;DHT22;9744;49.364;7.484;2023-03-14T04:13:15;7.40;99.90
19220;DHT22;9744;49.364;7.484;2023-03-14T04:15:47;7.40;99.90
19220;DHT22;9744;49.364;7.484;2023-03-14T04:18:21;7.50;99.90
19220;DHT22;9744;49.364;7.484;2023-03-14T04:20:51;7.50;99.90
19220;DHT22;9744;49.364;7.484;2023-03-14T04:23:21;7.50;99.90
19220;DHT22;9744;49.364;7.484;2023-03-14T04:25:54;7.50;99.90
19220;DHT22;9744;49.364;7.484;2023-03-14T04:28:23;7.50;99.90
19220;DHT22;9744;49.364;7.484;2023-03-14T04:30:50;7.50;99.90
19220;DHT22;9744;49.364;7.484;2023-03-14T04:33:23;7.50;99.90
19220;DHT22;9744;49.364;7.484;2023-03-14T04:35:54;7.50;99.90
19220;DHT22;9744;49.364;7.484;2023-03-14T04:38:22;7.50;99.90
19220;DHT22;9744;49.364;7.484;2023-03-14T04:40:50;7.50;99.90
19220;DHT22;9744;49.364;7.484;2023-03-14T04:43:19;7.50;99.90
19220;DHT22;9744;49.364;7.484;2023-03-14T04:45:51;7.50;99.90
19220;DHT22;9744;49.364;7.484;2023-03-14T04:48:22;7.50;99.90
19220;DHT22;9744;49.364;7.484;2023-03-14T04:50:49;7.50;99.90
19220;DHT22;9744;49.364;7.484;2023-03-14T04:53:17;7.50;99.90
19220;DHT22;9744;49.364;7.484;2023-03-14T04:55:48;7.50;99.90
19220;DHT22;9744;49.364;7.484;2023-03-14T04:58:15;7.50;99.90
19220;DHT22;9744;49.364;7.484;2023-03-14T05:00:43;7.40;99.90
19220;DHT22;9744;49.364;7.484;2023-03-14T05:03:26;7.40;99.90
19220;DHT22;9744;49.364;7.484;2023-03-14T05:06:26;7.40;99.90
19220;DHT22;9744;49.364;7.484;2023-03-14T05:08:53;7.40;99.90
19220;DHT22;9744;49.364;7.484;2023-03-14T05:11:42;7.40;99.90
19220;DHT22;9744;49.364;7.484;2023-03-14T05:14:23;7.30;99.90
19220;DHT22;9744;49.364;7.484;2023-03-14T05:17:02;7.30;99.90
19220;DHT22;9744;49.364;7.484;2023-03-14T05:19:51;7.30;99.90
19220;DHT22;9744;49.364;7.484;2023-03-14T05:22:35;7.30;99.90
19220;DHT22;9744;49.364;7.484;2023-03-14T05:25:22;7.30;99.90
19220;DHT22;9744;49.364;7.484;2023-03-14T05:28:14;7.30;99.90
19220;DHT22;9744;49.364;7.484;2023-03-14T05:30:54;7.20;99.90
19220;DHT22;9744;49.364;7.484;2023-03-14T05:33:40;7.30;99.90
19220;DHT22;9744;49.364;7.484;2023-03-14T05:36:27;7.20;99.90
19220;DHT22;9744;49.364;7.484;2023-03-14T05:39:18;7.20;99.90
19220;DHT22;9744;49.364;7.484;2023-03-14T05:42:14;7.20;99.90
19220;DHT22;9744;49.364;7.484;2023-03-14T05:44:56;7.20;99.90
19220;DHT22;9744;49.364;7.484;2023-03-14T05:47:55;7.20;99.90
19220;DHT22;9744;49.364;7.484;2023-03-14T05:50:35;7.20;99.90
19220;DHT22;9744;49.364;7.484;2023-03-14T05:53:13;7.20;99.90
19220;DHT22;9744;49.364;7.484;2023-03-14T05:55:43;7.20;99.90
19220;DHT22;9744;49.364;7.484;2023-03-14T05:58:22;7.20;99.90
19220;DHT22;9744;49.364;7.484;2023-03-14T06:01:16;7.10;99.90
19220;DHT22;9744;49.364;7.484;2023-03-14T06:04:04;7.10;99.90
19220;DHT22;9744;49.364;7.484;2023-03-14T06:06:32;7.00;99.90
19220;DHT22;9744;49.364;7.484;2023-03-14T06:09:01;7.00;99.90
19220;DHT22;9744;49.364;7.484;2023-03-14T06:11:31;7.00;99.90
19220;DHT22;9744;49.364;7.484;2023-03-14T06:14:29;7.00;99.90
19220;DHT22;9744;49.364;7.484;2023-03-14T06:16:57;7.00;99.90
19220;DHT22;9744;49.364;7.484;2023-03-14T06:19:26;7.00;99.90
19220;DHT22;9744;49.364;7.484;2023-03-14T06:21:53;7.00;99.90
19220;DHT22;9744;49.364;7.484;2023-03-14T06:24:23;7.00;99.90
19220;DHT22;9744;49.364;7.484;2023-03-14T06:26:51;7.00;99.90
19220;DHT22;9744;49.364;7.484;2023-03-14T06:29:19;7.00;99.90
19220;DHT22;9744;49.364;7.484;2023-03-14T06:31:46;7.00;99.90
19220;DHT22;9744;49.364;7.484;2023-03-14T06:34:16;7.00;99.90
19220;DHT22;9744;49.364;7.484;2023-03-14T06:36:44;7.00;99.90
19220;DHT22;9744;49.364;7.484;2023-03-14T06:39:11;7.00;99.90
19220;DHT22;9744;49.364;7.484;2023-03-14T06:41:44;7.00;99.90
19220;DHT22;9744;49.364;7.484;2023-03-14T06:44:12;7.00;99.90
19220;DHT22;9744;49.364;7.484;2023-03-14T06:46:39;7.10;99.90
19220;DHT22;9744;49.364;7.484;2023-03-14T06:49:11;7.10;99.90
19220;DHT22;9744;49.364;7.484;2023-03-14T06:51:39;7.10;99.90
19220;DHT22;9744;49.364;7.484;2023-03-14T06:54:09;7.10;99.90
19220;DHT22;9744;49.364;7.484;2023-03-14T06:56:36;7.10;99.90
19220;DHT22;9744;49.364;7.484;2023-03-14T06:59:05;7.10;99.90
19220;DHT22;9744;49.364;7.484;2023-03-14T07:01:32;7.10;99.90
19220;DHT22;9744;49.364;7.484;2023-03-14T07:04:06;7.10;99.90
19220;DHT22;9744;49.364;7.484;2023-03-14T07:06:36;7.10;99.90
19220;DHT22;9744;49.364;7.484;2023-03-14T07:09:05;7.20;99.90
19220;DHT22;9744;49.364;7.484;2023-03-14T07:11:37;7.20;99.90
19220;DHT22;9744;49.364;7.484;2023-03-14T07:14:06;7.20;99.90
19220;DHT22;9744;49.364;7.484;2023-03-14T07:16:33;7.20;99.90
19220;DHT22;9744;49.364;7.484;2023-03-14T07:19:04;7.20;99.90
19220;DHT22;9744;49.364;7.484;2023-03-14T07:21:32;7.30;99.90
19220;DHT22;9744;49.364;7.484;2023-03-14T07:24:02;7.30;99.90
19220;DHT22;9744;49.364;7.484;2023-03-14T07:26:57;7.30;99.90
19220;DHT22;9744;49.364;7.484;2023-03-14T07:29:25;7.30;99.90
19220;DHT22;9744;49.364;7.484;2023-03-14T07:31:55;7.30;99.90
19220;DHT22;9744;49.364;7.484;2023-03-14T07:34:22;7.30;99.90
19220;DHT22;9744;49.364;7.484;2023-03-14T07:36:50;7.30;99.90
19220;DHT22;9744;49.364;7.484;2023-03-14T07:39:17;7.30;99.90
19220;DHT22;9744;49.364;7.484;2023-03-14T07:41:58;7.30;99.90
19220;DHT22;9744;49.364;7.484;2023-03-14T07:44:51;7.30;99.90
19220;DHT22;9744;49.364;7.484;2023-03-14T07:47:18;7.30;99.90
19220;DHT22;9744;49.364;7.484;2023-03-14T07:49:45;7.30;99.90
19220;DHT22;9744;49.364;7.484;2023-03-14T07:52:25;7.30;99.90
19220;DHT22;9744;49.364;7.484;2023-03-14T07:54:52;7.30;99.90
19220;DHT22;9744;49.364;7.484;2023-03-14T07:57:19;7.30;99.90
19220;DHT22;9744;49.364;7.484;2023-03-14T07:59:46;7.40;99.90
19220;DHT22;9744;49.364;7.484;2023-03-14T08:02:21;7.40;99.90
19220;DHT22;9744;49.364;7.484;2023-03-14T08:04:53;7.40;99.90
19220;DHT22;9744;49.364;7.484;2023-03-14T08:07:46;7.40;99.90
19220;DHT22;9744;49.364;7.484;2023-03-14T08:10:17;7.40;99.90
19220;DHT22;9744;49.364;7.484;2023-03-14T08:12:54;7.40;99.90
19220;DHT22;9744;49.364;7.484;2023-03-14T08:15:22;7.50;99.90
19220;DHT22;9744;49.364;7.484;2023-03-14T08:17:51;7.50;99.90
19220;DHT22;9744;49.364;7.484;2023-03-14T08:20:20;7.50;99.90
19220;DHT22;9744;49.364;7.484;2023-03-14T08:22:48;7.50;99.90
19220;DHT22;9744;49.364;7.484;2023-03-14T08:25:16;7.50;99.90
19220;DHT22;9744;49.364;7.484;2023-03-14T08:27:43;7.50;99.90
19220;DHT22;9744;49.364;7.484;2023-03-14T08:30:15;7.50;99.90
19220;DHT22;9744;49.364;7.484;2023-03-14T08:32:43;7.50;99.90
19220;DHT22;9744;49.364;7.484;2023-03-14T08:35:11;7.50;99.90
19220;DHT22;9744;49.364;7.484;2023-03-14T08:37:39;7.50;99.90
19220;DHT22;9744;49.364;7.484;2023-03-14T08:40:08;7.60;99.90
19220;DHT22;9744;49.364;7.484;2023-03-14T08:42:36;7.50;99.90
19220;DHT22;9744;49.364;7.484;2023-03-14T08:45:04;7.60;99.90
19220;DHT22;9744;49.364;7.484;2023-03-14T08:51:13;7.60;99.90
19220;DHT22;9744;49.364;7.484;2023-03-14T08:53:41;7.60;99.90
19220;DHT22;9744;49.364;7.484;2023-03-14T08:56:08;7.60;99.90
19220;DHT22;9744;49.364;7.484;2023-03-14T08:58:36;7.60;99.90
19220;DHT22;9744;49.364;7.484;2023-03-14T09:01:04;7.60;99.90
19220;DHT22;9744;49.364;7.484;2023-03-14T09:03:33;7.60;99.90
19220;DHT22;9744;49.364;7.484;2023-03-14T09:06:04;7.70;99.90
19220;DHT22;9744;49.364;7.484;2023-03-14T09:08:34;7.70;99.90
19220;DHT22;9744;49.364;7.484;2023-03-14T09:11:02;7.80;99.90
19220;DHT22;9744;49.364;7.484;2023-03-14T09:13:29;7.80;99.90
19220;DHT22;9744;49.364;7.484;2023-03-14T09:15:56;7.80;99.90
19220;DHT22;9744;49.364;7.484;2023-03-14T09:18:24;7.90;99.90
19220;DHT22;9744;49.364;7.484;2023-03-14T09:20:51;7.90;99.90
19220;DHT22;9744;49.364;7.484;2023-03-14T09:23:18;7.90;99.90
19220;DHT22;9744;49.364;7.484;2023-03-14T09:25:48;7.90;99.90
19220;DHT22;9744;49.364;7.484;2023-03-14T09:28:15;7.80;99.90
19220;DHT22;9744;49.364;7.484;2023-03-14T09:30:44;7.90;99.90
19220;DHT22;9744;49.364;7.484;2023-03-14T09:33:11;7.80;99.90
19220;DHT22;9744;49.364;7.484;2023-03-14T09:35:39;7.80;99.90
19220;DHT22;9744;49.364;7.484;2023-03-14T09:38:06;7.80;99.90
19220;DHT22;9744;49.364;7.484;2023-03-14T09:40:35;7.80;99.90
19220;DHT22;9744;49.364;7.484;2023-03-14T09:43:05;7.90;99.90
19220;DHT22;9744;49.364;7.484;2023-03-14T09:45:34;7.90;99.90
19220;DHT22;9744;49.364;7.484;2023-03-14T09:48:04;7.90;99.90
19220;DHT22;9744;49.364;7.484;2023-03-14T09:50:37;7.90;99.90
19220;DHT22;9744;49.364;7.484;2023-03-14T09:53:11;7.80;99.90
19220;DHT22;9744;49.364;7.484;2023-03-14T09:55:45;7.80;99.90
19220;DHT22;9744;49.364;7.484;2023-03-14T09:58:18;7.80;99.90
19220;DHT22;9744;49.364;7.484;2023-03-14T10:00:46;7.70;99.90
19220;DHT22;9744;49.364;7.484;2023-03-14T10:03:24;7.70;99.90
19220;DHT22;9744;49.364;7.484;2023-03-14T10:05:56;7.70;99.90
19220;DHT22;9744;49.364;7.484;2023-03-14T10:08:24;7.70;99.90
19220;DHT22;9744;49.364;7.484;2023-03-14T10:10:51;7.70;99.90
19220;DHT22;9744;49.364;7.484;2023-03-14T10:13:23;7.80;99.90
19220;DHT22;9744;49.364;7.484;2023-03-14T10:15:53;7.80;99.90
19220;DHT22;9744;49.364;7.484;2023-03-14T10:18:22;7.80;99.90
19220;DHT22;9744;49.364;7.484;2023-03-14T10:21:03;7.80;99.90
19220;DHT22;9744;49.364;7.484;2023-03-14T10:23:33;7.80;99.90
19220;DHT22;9744;49.364;7.484;2023-03-14T10:26:06;7.70;99.90
19220;DHT22;9744;49.364;7.484;2023-03-14T10:28:43;7.70;99.90
19220;DHT22;9744;49.364;7.484;2023-03-14T10:31:10;7.70;99.90
19220;DHT22;9744;49.364;7.484;2023-03-14T10:33:38;7.60;99.90
19220;DHT22;9744;49.364;7.484;2023-03-14T10:36:18;7.50;99.90
19220;DHT22;9744;49.364;7.484;2023-03-14T10:38:47;7.40;99.90
19220;DHT22;9744;49.364;7.484;2023-03-14T10:41:17;7.20;99.90
19220;DHT22;9744;49.364;7.484;2023-03-14T10:43:51;7.00;99.90
19220;DHT22;9744;49.364;7.484;2023-03-14T10:46:24;6.90;99.90
19220;DHT22;9744;49.364;7.484;2023-03-14T10:49:25;6.80;99.90
19220;DHT22;9744;49.364;7.484;2023-03-14T10:51:53;6.70;99.90
19220;DHT22;9744;49.364;7.484;2023-03-14T10:54:22;6.60;99.90
19220;DHT22;9744;49.364;7.484;2023-03-14T10:57:00;6.60;99.90
19220;DHT22;9744;49.364;7.484;2023-03-14T10:59:35;6.50;99.90
19220;DHT22;9744;49.364;7.484;2023-03-14T11:02:15;6.50;99.90
19220;DHT22;9744;49.364;7.484;2023-03-14T11:04:55;6.40;99.90
19220;DHT22;9744;49.364;7.484;2023-03-14T11:07:34;6.40;99.90
19220;DHT22;9744;49.364;7.484;2023-03-14T11:10:10;6.30;99.90
19220;DHT22;9744;49.364;7.484;2023-03-14T11:12:45;6.30;99.90
19220;DHT22;9744;49.364;7.484;2023-03-14T11:15:24;6.30;99.90
19220;DHT22;9744;49.364;7.484;2023-03-14T11:18:05;6.20;99.90
19220;DHT22;9744;49.364;7.484;2023-03-14T11:20:40;6.20;99.90
19220;DHT22;9744;49.364;7.484;2023-03-14T11:23:13;6.10;99.90
19220;DHT22;9744;49.364;7.484;2023-03-14T11:25:49;6.00;99.90
19220;DHT22;9744;49.364;7.484;2023-03-14T11:28:24;6.00;99.90
19220;DHT22;9744;49.364;7.484;2023-03-14T11:30:55;6.00;99.90
19220;DHT22;9744;49.364;7.484;2023-03-14T11:33:28;6.00;99.90
19220;DHT22;9744;49.364;7.484;2023-03-14T11:36:03;5.90;99.90
19220;DHT22;9744;49.364;7.484;2023-03-14T11:38:36;6.00;99.90
19220;DHT22;9744;49.364;7.484;2023-03-14T11:41:10;5.90;99.90
19220;DHT22;9744;49.364;7.484;2023-03-14T11:43:44;5.60;99.90
19220;DHT22;9744;49.364;7.484;2023-03-14T11:46:19;5.60;99.90
19220;DHT22;9744;49.364;7.484;2023-03-14T11:48:57;5.70;99.90
19220;DHT22;9744;49.364;7.484;2023-03-14T11:51:29;5.80;99.90
19220;DHT22;9744;49.364;7.484;2023-03-14T11:54:04;5.90;99.90
19220;DHT22;9744;49.364;7.484;2023-03-14T11:56:37;6.30;99.90
19220;DHT22;9744;49.364;7.484;2023-03-14T11:59:14;6.70;99.90
19220;DHT22;9744;49.364;7.484;2023-03-14T12:01:53;7.00;99.90
19220;DHT22;9744;49.364;7.484;2023-03-14T12:04:40;7.00;99.90
19220;DHT22;9744;49.364;7.484;2023-03-14T12:07:17;7.20;99.90
19220;DHT22;9744;49.364;7.484;2023-03-14T12:09:46;6.90;99.90
19220;DHT22;9744;49.364;7.484;2023-03-14T12:12:17;6.90;99.90
19220;DHT22;9744;49.364;7.484;2023-03-14T12:14:52;6.90;99.90
19220;DHT22;9744;49.364;7.484;2023-03-14T12:17:25;6.90;99.90
19220;DHT22;9744;49.364;7.484;2023-03-14T12:20:06;6.90;99.90
19220;DHT22;9744;49.364;7.484;2023-03-14T12:22:43;6.70;99.90
19220;DHT22;9744;49.364;7.484;2023-03-14T12:25:17;6.50;99.90
19220;DHT22;9744;49.364;7.484;2023-03-14T12:28:04;6.60;99.90
19220;DHT22;9744;49.364;7.484;2023-03-14T12:30:33;6.60;99.90
19220;DHT22;9744;49.364;7.484;2023-03-14T12:33:27;6.70;99.90
19220;DHT22;9744;49.364;7.484;2023-03-14T12:36:00;6.80;99.90
19220;DHT22;9744;49.364;7.484;2023-03-14T12:38:43;6.80;99.90
19220;DHT22;9744;49.364;7.484;2023-03-14T12:41:16;6.90;99.90
19220;DHT22;9744;49.364;7.484;2023-03-14T12:43:45;6.70;99.90
19220;DHT22;9744;49.364;7.484;2023-03-14T12:46:22;6.70;99.90
19220;DHT22;9744;49.364;7.484;2023-03-14T12:48:55;6.80;99.90
19220;DHT22;9744;49.364;7.484;2023-03-14T12:51:29;7.00;99.90
19220;DHT22;9744;49.364;7.484;2023-03-14T12:54:20;6.90;99.90
19220;DHT22;9744;49.364;7.484;2023-03-14T12:57:03;7.00;99.90
19220;DHT22;9744;49.364;7.484;2023-03-14T12:59:33;7.30;99.90
19220;DHT22;9744;49.364;7.484;2023-03-14T13:02:16;7.30;99.90
19220;DHT22;9744;49.364;7.484;2023-03-14T13:04:49;7.30;99.90
19220;DHT22;9744;49.364;7.484;2023-03-14T13:07:35;7.40;99.90
19220;DHT22;9744;49.364;7.484;2023-03-14T13:10:22;7.20;99.90
19220;DHT22;9744;49.364;7.484;2023-03-14T13:12:51;7.30;99.90
19220;DHT22;9744;49.364;7.484;2023-03-14T13:15:27;7.20;99.90
19220;DHT22;9744;49.364;7.484;2023-03-14T13:17:59;7.40;99.90
19220;DHT22;9744;49.364;7.484;2023-03-14T13:20:31;7.60;99.90
19220;DHT22;9744;49.364;7.484;2023-03-14T13:23:00;8.00;99.90
19220;DHT22;9744;49.364;7.484;2023-03-14T13:25:33;8.30;99.90
19220;DHT22;9744;49.364;7.484;2023-03-14T13:28:01;8.40;99.90
19220;DHT22;9744;49.364;7.484;2023-03-14T13:30:38;8.50;99.90
19220;DHT22;9744;49.364;7.484;2023-03-14T13:33:07;8.50;99.90
19220;DHT22;9744;49.364;7.484;2023-03-14T13:35:42;8.60;99.90
19220;DHT22;9744;49.364;7.484;2023-03-14T13:38:21;8.90;99.90
19220;DHT22;9744;49.364;7.484;2023-03-14T13:40:50;9.20;99.90
19220;DHT22;9744;49.364;7.484;2023-03-14T13:43:21;9.20;99.90
19220;DHT22;9744;49.364;7.484;2023-03-14T13:45:52;9.10;99.90
19220;DHT22;9744;49.364;7.484;2023-03-14T13:48:26;9.10;99.90
19220;DHT22;9744;49.364;7.484;2023-03-14T13:50:58;9.20;99.90
19220;DHT22;9744;49.364;7.484;2023-03-14T13:53:26;9.20;99.90
19220;DHT22;9744;49.364;7.484;2023-03-14T13:55:53;9.30;99.90
19220;DHT22;9744;49.364;7.484;2023-03-14T13:58:23;9.30;99.90
19220;DHT22;9744;49.364;7.484;2023-03-14T14:00:59;9.10;99.90
19220;DHT22;9744;49.364;7.484;2023-03-14T14:03:31;8.80;99.90
19220;DHT22;9744;49.364;7.484;2023-03-14T14:06:02;8.80;99.90
19220;DHT22;9744;49.364;7.484;2023-03-14T14:08:30;8.60;99.90
19220;DHT22;9744;49.364;7.484;2023-03-14T14:11:00;8.50;99.90
19220;DHT22;9744;49.364;7.484;2023-03-14T14:13:32;8.40;99.90
19220;DHT22;9744;49.364;7.484;2023-03-14T14:16:02;8.70;99.90
19220;DHT22;9744;49.364;7.484;2023-03-14T14:18:32;8.80;99.90
19220;DHT22;9744;49.364;7.484;2023-03-14T14:21:02;8.90;99.90
19220;DHT22;9744;49.364;7.484;2023-03-14T14:23:35;8.90;99.90
19220;DHT22;9744;49.364;7.484;2023-03-14T14:26:06;9.20;99.90
19220;DHT22;9744;49.364;7.484;2023-03-14T14:28:34;9.40;99.90
19220;DHT22;9744;49.364;7.484;2023-03-14T14:31:06;9.60;99.90
19220;DHT22;9744;49.364;7.484;2023-03-14T14:33:46;9.40;99.90
19220;DHT22;9744;49.364;7.484;2023-03-14T14:36:25;9.50;99.90
19220;DHT22;9744;49.364;7.484;2023-03-14T14:39:03;9.70;99.90
19220;DHT22;9744;49.364;7.484;2023-03-14T14:41:32;9.80;99.90
19220;DHT22;9744;49.364;7.484;2023-03-14T14:44:03;9.60;99.90
19220;DHT22;9744;49.364;7.484;2023-03-14T14:47:01;9.60;99.90
19220;DHT22;9744;49.364;7.484;2023-03-14T14:49:30;9.50;99.90
19220;DHT22;9744;49.364;7.484;2023-03-14T14:52:03;9.50;99.90
19220;DHT22;9744;49.364;7.484;2023-03-14T14:54:38;9.60;99.90
19220;DHT22;9744;49.364;7.484;2023-03-14T14:57:18;9.40;99.90
19220;DHT22;9744;49.364;7.484;2023-03-14T14:59:48;9.40;99.90
19220;DHT22;9744;49.364;7.484;2023-03-14T15:02:29;9.50;99.90
19220;DHT22;9744;49.364;7.484;2023-03-14T15:04:59;9.60;99.90
19220;DHT22;9744;49.364;7.484;2023-03-14T15:07:28;9.40;99.90
19220;DHT22;9744;49.364;7.484;2023-03-14T15:09:55;9.40;99.90
19220;DHT22;9744;49.364;7.484;2023-03-14T15:12:22;9.70;99.90
19220;DHT22;9744;49.364;7.484;2023-03-14T15:14:50;9.90;99.90
19220;DHT22;9744;49.364;7.484;2023-03-14T15:17:17;9.70;99.90
19220;DHT22;9744;49.364;7.484;2023-03-14T15:19:44;9.80;99.90
19220;DHT22;9744;49.364;7.484;2023-03-14T15:22:12;9.50;99.90
19220;DHT22;9744;49.364;7.484;2023-03-14T15:24:42;9.30;99.90
19220;DHT22;9744;49.364;7.484;2023-03-14T15:27:13;9.40;99.90
19220;DHT22;9744;49.364;7.484;2023-03-14T15:29:41;9.30;99.90
19220;DHT22;9744;49.364;7.484;2023-03-14T15:32:11;9.00;99.90
19220;DHT22;9744;49.364;7.484;2023-03-14T15:34:39;8.90;99.90
19220;DHT22;9744;49.364;7.484;2023-03-14T15:37:10;8.70;99.90
19220;DHT22;9744;49.364;7.484;2023-03-14T15:39:38;8.50;99.90
19220;DHT22;9744;49.364;7.484;2023-03-14T15:42:07;8.40;99.90
19220;DHT22;9744;49.364;7.484;2023-03-14T15:44:34;8.20;99.90
19220;DHT22;9744;49.364;7.484;2023-03-14T15:47:01;8.00;99.90
19220;DHT22;9744;49.364;7.484;2023-03-14T15:49:29;7.90;99.90
19220;DHT22;9744;49.364;7.484;2023-03-14T15:51:56;7.70;99.90
19220;DHT22;9744;49.364;7.484;2023-03-14T15:54:23;7.50;99.90
19220;DHT22;9744;49.364;7.484;2023-03-14T15:56:57;7.40;99.90
19220;DHT22;9744;49.364;7.484;2023-03-14T15:59:26;7.50;99.90
19220;DHT22;9744;49.364;7.484;2023-03-14T16:01:53;7.60;99.90
19220;DHT22;9744;49.364;7.484;2023-03-14T16:04:21;7.40;99.90
19220;DHT22;9744;49.364;7.484;2023-03-14T16:06:48;7.40;99.90
19220;DHT22;9744;49.364;7.484;2023-03-14T16:09:23;7.20;99.90
19220;DHT22;9744;49.364;7.484;2023-03-14T16:11:52;7.20;99.90
19220;DHT22;9744;49.364;7.484;2023-03-14T16:14:20;7.10;99.90
19220;DHT22;9744;49.364;7.484;2023-03-14T16:16:48;7.00;99.90
19220;DHT22;9744;49.364;7.484;2023-03-14T16:19:16;7.00;99.90
19220;DHT22;9744;49.364;7.484;2023-03-14T16:21:46;6.90;99.90
19220;DHT22;9744;49.364;7.484;2023-03-14T16:24:14;6.90;99.90
19220;DHT22;9744;49.364;7.484;2023-03-14T16:26:41;6.90;99.90
19220;DHT22;9744;49.364;7.484;2023-03-14T16:29:09;6.90;99.90
19220;DHT22;9744;49.364;7.484;2023-03-14T16:31:40;6.80;99.90
19220;DHT22;9744;49.364;7.484;2023-03-14T16:34:10;6.80;99.90
19220;DHT22;9744;49.364;7.484;2023-03-14T16:36:37;7.00;99.90
19220;DHT22;9744;49.364;7.484;2023-03-14T16:39:04;6.80;99.90
19220;DHT22;9744;49.364;7.484;2023-03-14T16:41:32;6.80;99.90